Time;durP1;ratioP1;P1;durP2;ratioP2;P2;SDS_P1;SDS_P2;PMS_P1;PMS_P2;Temp;Humidity;BMP_temperature;BMP_pressure;BME280_temperature;BME280_humidity;BME280_pressure;Samples;Min_cycle;Max_cycle;Signal;HPM_P1;HPM_P2
2024/02/08 00:01:52;;;;;;;186.10;96.90;;;;;;;;;;5122227;27;319330;-76
2024/02/08 00:04:19;;;;;;;178.37;89.27;;;;;;;;;;5108651;27;338295;-76
2024/02/08 00:06:46;;;;;;;156.73;83.33;;;;;;;;;;5122417;27;319229;-76
2024/02/08 00:09:13;;;;;;;139.23;75.10;;;;;;;;;;5109429;27;319283;-76
2024/02/08 00:11:41;;;;;;;137.63;74.30;;;;;;;;;;5121646;27;319681;-76
2024/02/08 00:14:07;;;;;;;119.70;63.27;;;;;;;;;;5121524;27;319254;-76
2024/02/08 00:16:37;;;;;;;119.50;65.30;;;;;;;;;;5104000;27;319337;-76
2024/02/08 00:19:04;;;;;;;108.27;60.60;;;;;;;;;;5121580;27;319230;-76
2024/02/08 00:21:32;;;;;;;98.63;57.50;;;;;;;;;;5110909;27;319129;-76
2024/02/08 00:24:00;;;;;;;102.87;54.33;;;;;;;;;;5121987;27;318107;-76
2024/02/08 00:26:26;;;;;;;104.70;58.63;;;;;;;;;;5101577;27;338451;-77
2024/02/08 00:28:54;;;;;;;102.43;60.00;;;;;;;;;;5123406;27;319327;-77
2024/02/08 00:31:21;;;;;;;116.00;60.40;;;;;;;;;;5111190;27;319138;-77
2024/02/08 00:33:49;;;;;;;106.77;60.13;;;;;;;;;;5121639;27;319157;-77
2024/02/08 00:36:16;;;;;;;117.13;61.73;;;;;;;;;;5111499;27;319174;-77
2024/02/08 00:38:43;;;;;;;99.13;56.53;;;;;;;;;;5114297;27;319744;-77
2024/02/08 00:41:09;;;;;;;101.10;54.27;;;;;;;;;;5120246;27;354097;-77
2024/02/08 00:43:39;;;;;;;97.67;57.83;;;;;;;;;;5108049;27;420213;-77
2024/02/08 00:46:07;;;;;;;95.63;56.87;;;;;;;;;;5122537;27;317954;-77
2024/02/08 00:48:33;;;;;;;86.43;50.23;;;;;;;;;;5101360;27;332235;-77
2024/02/08 00:51:20;;;;;;;106.53;57.13;;;;;;;;;;5122999;27;318338;-77
2024/02/08 00:53:46;;;;;;;77.07;45.10;;;;;;;;;;5107316;27;418140;-77
2024/02/08 00:56:13;;;;;;;80.83;47.33;;;;;;;;;;5111434;27;318321;-77
2024/02/08 00:58:40;;;;;;;86.13;49.20;;;;;;;;;;5113916;27;317438;-77
2024/02/08 01:01:08;;;;;;;97.70;50.83;;;;;;;;;;5121400;27;318196;-77
2024/02/08 01:03:35;;;;;;;91.37;50.73;;;;;;;;;;5106759;27;418769;-77
2024/02/08 01:06:02;;;;;;;96.37;54.60;;;;;;;;;;5121099;27;317749;-77
2024/02/08 01:08:29;;;;;;;90.47;55.47;;;;;;;;;;5102464;27;318243;-77
2024/02/08 01:10:55;;;;;;;93.80;50.93;;;;;;;;;;5120824;27;340455;-77
2024/02/08 01:13:24;;;;;;;94.13;53.83;;;;;;;;;;5111255;27;318123;-77
2024/02/08 01:15:50;;;;;;;97.97;54.33;;;;;;;;;;5120587;27;334348;-77
2024/02/08 01:18:20;;;;;;;92.87;54.37;;;;;;;;;;5111876;27;318260;-77
2024/02/08 01:20:47;;;;;;;96.97;55.40;;;;;;;;;;5121650;27;318089;-77
2024/02/08 01:23:17;;;;;;;94.10;54.13;;;;;;;;;;5109913;27;318230;-77
2024/02/08 01:25:43;;;;;;;100.93;55.63;;;;;;;;;;5119791;27;327132;-77
2024/02/08 01:28:11;;;;;;;88.87;51.93;;;;;;;;;;5111234;27;318590;-77
2024/02/08 01:30:38;;;;;;;106.43;55.73;;;;;;;;;;5115162;27;318251;-77
2024/02/08 01:33:06;;;;;;;115.23;59.30;;;;;;;;;;5123468;27;319201;-77
2024/02/08 01:35:34;;;;;;;96.80;56.00;;;;;;;;;;5109480;27;335294;-77
2024/02/08 01:38:00;;;;;;;100.27;56.97;;;;;;;;;;5121516;27;318335;-77
2024/02/08 01:40:27;;;;;;;117.40;60.87;;;;;;;;;;5102970;27;319202;-77
2024/02/08 01:42:57;;;;;;;128.80;60.93;;;;;;;;;;5122620;27;319280;-77
2024/02/08 01:45:32;;;;;;;106.37;57.97;;;;;;;;;;5110965;27;319235;-77
2024/02/08 01:48:01;;;;;;;95.33;56.07;;;;;;;;;;5122155;27;319717;-77
2024/02/08 01:50:30;;;;;;;106.83;57.67;;;;;;;;;;5103496;27;318133;-77
2024/02/08 01:52:59;;;;;;;100.50;54.80;;;;;;;;;;5122199;27;318657;-77
2024/02/08 01:55:32;;;;;;;96.40;56.13;;;;;;;;;;5110723;27;319541;-77
2024/02/08 01:58:01;;;;;;;95.20;56.07;;;;;;;;;;5122532;27;318145;-77
2024/02/08 02:00:29;;;;;;;100.43;55.17;;;;;;;;;;5101869;27;318185;-77
2024/02/08 02:02:58;;;;;;;94.67;54.00;;;;;;;;;;5122279;27;319100;-77
2024/02/08 02:05:25;;;;;;;74.83;43.23;;;;;;;;;;5110571;27;317788;-78
2024/02/08 02:07:51;;;;;;;72.70;41.60;;;;;;;;;;5122086;27;318207;-77
2024/02/08 02:10:20;;;;;;;75.70;43.87;;;;;;;;;;5110664;27;318284;-77
2024/02/08 02:12:49;;;;;;;82.13;42.83;;;;;;;;;;5119035;27;318165;-77
2024/02/08 02:15:17;;;;;;;75.10;41.30;;;;;;;;;;5109353;27;318265;-77
2024/02/08 02:17:44;;;;;;;70.83;38.10;;;;;;;;;;5121602;27;318670;-77
2024/02/08 02:20:18;;;;;;;54.53;33.47;;;;;;;;;;5109910;27;318135;-77
2024/02/08 02:22:47;;;;;;;47.93;27.70;;;;;;;;;;5117161;27;317579;-77
2024/02/08 02:25:14;;;;;;;47.00;26.80;;;;;;;;;;5110188;27;318097;-77
2024/02/08 02:27:42;;;;;;;49.47;24.90;;;;;;;;;;5123004;27;318360;-78
2024/02/08 02:30:15;;;;;;;50.57;24.50;;;;;;;;;;5121629;27;348601;-78
2024/02/08 02:32:45;;;;;;;48.67;26.03;;;;;;;;;;5099449;27;417403;-77
2024/02/08 02:35:16;;;;;;;45.13;25.87;;;;;;;;;;5111060;27;318333;-77
2024/02/08 02:37:44;;;;;;;46.20;25.30;;;;;;;;;;5120949;27;318854;-77
2024/02/08 02:40:21;;;;;;;48.90;26.50;;;;;;;;;;5108913;27;318328;-77
2024/02/08 02:42:48;;;;;;;49.97;27.83;;;;;;;;;;5119733;27;317331;-77
2024/02/08 02:45:21;;;;;;;61.30;28.93;;;;;;;;;;5110550;27;318168;-77
2024/02/08 02:47:49;;;;;;;57.77;30.57;;;;;;;;;;5122267;27;317847;-78
2024/02/08 02:50:17;;;;;;;57.33;28.80;;;;;;;;;;5110568;27;318180;-77
2024/02/08 02:52:44;;;;;;;66.57;34.57;;;;;;;;;;5113373;27;318244;-78
2024/02/08 02:55:13;;;;;;;74.57;37.23;;;;;;;;;;5110029;27;318277;-78
2024/02/08 02:57:41;;;;;;;94.63;46.47;;;;;;;;;;5120616;27;317558;-78
2024/02/08 03:00:20;;;;;;;84.80;47.40;;;;;;;;;;5120873;27;318265;-78
2024/02/08 03:02:49;;;;;;;93.03;49.80;;;;;;;;;;5103942;27;418765;-78
2024/02/08 03:05:17;;;;;;;100.73;48.70;;;;;;;;;;5108842;27;318497;-78
2024/02/08 03:07:45;;;;;;;86.53;49.97;;;;;;;;;;5120923;27;319877;-78
2024/02/08 03:10:14;;;;;;;91.80;50.77;;;;;;;;;;5110681;27;317360;-78
2024/02/08 03:12:41;;;;;;;96.43;51.90;;;;;;;;;;5114037;27;317991;-77
2024/02/08 03:15:09;;;;;;;93.63;52.43;;;;;;;;;;5121743;27;318172;-77
2024/02/08 03:17:38;;;;;;;104.83;54.20;;;;;;;;;;5105836;27;418462;-77
2024/02/08 03:20:11;;;;;;;97.40;54.13;;;;;;;;;;5120775;27;319340;-77
2024/02/08 03:22:38;;;;;;;94.83;53.20;;;;;;;;;;5098948;27;418439;-77
2024/02/08 03:25:05;;;;;;;99.43;53.83;;;;;;;;;;5121490;27;318117;-77
2024/02/08 03:27:34;;;;;;;95.03;53.83;;;;;;;;;;5108626;27;329792;-77
2024/02/08 03:30:02;;;;;;;104.83;56.93;;;;;;;;;;5120733;27;317785;-77
2024/02/08 03:32:29;;;;;;;97.73;54.73;;;;;;;;;;5100881;27;319059;-77
2024/02/08 03:34:56;;;;;;;135.13;71.80;;;;;;;;;;5121392;27;318142;-77
2024/02/08 03:37:23;;;;;;;138.33;72.43;;;;;;;;;;5110063;27;319503;-77
2024/02/08 03:39:50;;;;;;;133.47;70.70;;;;;;;;;;5120496;27;319385;-77
2024/02/08 03:42:18;;;;;;;110.43;63.80;;;;;;;;;;5110562;27;318901;-77
2024/02/08 03:44:46;;;;;;;111.27;63.00;;;;;;;;;;5114482;27;318612;-76
2024/02/08 03:47:17;;;;;;;110.90;63.90;;;;;;;;;;5110199;27;319432;-77
2024/02/08 03:49:49;;;;;;;111.47;64.83;;;;;;;;;;5121411;27;318566;-76
2024/02/08 03:52:18;;;;;;;119.90;65.40;;;;;;;;;;5110285;27;319084;-76
2024/02/08 03:54:45;;;;;;;117.37;64.73;;;;;;;;;;5112676;27;347026;-76
2024/02/08 03:57:13;;;;;;;121.80;63.97;;;;;;;;;;5110300;27;319240;-76
2024/02/08 03:59:40;;;;;;;114.80;65.90;;;;;;;;;;5122076;27;319369;-76
2024/02/08 04:02:09;;;;;;;110.63;62.97;;;;;;;;;;5118835;27;319268;-76
2024/02/08 04:04:49;;;;;;;105.63;62.10;;;;;;;;;;5097687;27;420293;-76
2024/02/08 04:07:20;;;;;;;132.23;72.33;;;;;;;;;;5108606;27;319001;-76
2024/02/08 04:09:50;;;;;;;127.47;67.27;;;;;;;;;;5121623;27;318905;-76
2024/02/08 04:53:36;;;;;;;151.90;76.13;;;;;;;;;;5094899;27;319260;-76
2024/02/08 04:56:08;;;;;;;179.20;82.67;;;;;;;;;;5120708;27;338677;-77
2024/02/08 04:58:36;;;;;;;172.87;80.43;;;;;;;;;;5100199;27;371585;-76
2024/02/08 05:01:03;;;;;;;150.80;75.03;;;;;;;;;;5123138;27;319190;-76
2024/02/08 05:03:30;;;;;;;162.03;80.50;;;;;;;;;;5110786;27;319515;-76
2024/02/08 05:06:00;;;;;;;150.53;76.97;;;;;;;;;;5121621;27;318940;-78
2024/02/08 05:08:27;;;;;;;203.40;99.37;;;;;;;;;;5100860;27;319335;-76
2024/02/08 05:10:55;;;;;;;193.27;96.17;;;;;;;;;;5124694;27;321282;-78
2024/02/08 05:13:24;;;;;;;193.17;90.83;;;;;;;;;;5112479;27;318938;-77
2024/02/08 05:15:52;;;;;;;186.33;89.87;;;;;;;;;;5122900;27;318692;-76
2024/02/08 05:18:21;;;;;;;171.83;84.47;;;;;;;;;;5110886;27;318538;-76
2024/02/08 05:20:49;;;;;;;144.27;70.63;;;;;;;;;;5119276;27;319320;-76
2024/02/08 05:23:17;;;;;;;132.83;67.27;;;;;;;;;;5110977;27;319167;-76
2024/02/08 05:25:44;;;;;;;127.07;63.80;;;;;;;;;;5122559;27;318548;-76
2024/02/08 05:28:12;;;;;;;123.77;67.53;;;;;;;;;;5111610;27;319262;-76
2024/02/08 05:30:41;;;;;;;100.73;59.40;;;;;;;;;;5114016;27;319189;-78
2024/02/08 05:33:08;;;;;;;114.17;59.90;;;;;;;;;;5121667;27;318543;-77
2024/02/08 05:35:36;;;;;;;113.30;61.50;;;;;;;;;;5107529;27;419989;-76
2024/02/08 05:38:02;;;;;;;103.43;62.00;;;;;;;;;;5122325;27;319348;-78
2024/02/08 05:40:31;;;;;;;107.13;60.73;;;;;;;;;;5101840;27;319210;-76
2024/02/08 05:42:59;;;;;;;114.87;64.90;;;;;;;;;;5120978;27;319160;-76
2024/02/08 05:45:30;;;;;;;115.60;69.53;;;;;;;;;;5110132;27;319087;-76
2024/02/08 05:48:05;;;;;;;117.17;67.30;;;;;;;;;;5120871;27;318475;-76
2024/02/08 05:50:33;;;;;;;120.23;66.00;;;;;;;;;;5084266;27;319205;-76
2024/02/08 05:53:06;;;;;;;115.47;61.97;;;;;;;;;;5122186;27;318644;-77
2024/02/08 05:55:35;;;;;;;153.67;79.40;;;;;;;;;;5110564;27;319215;-77
2024/02/08 05:58:03;;;;;;;151.77;79.57;;;;;;;;;;5122375;27;319288;-77
2024/02/08 06:00:36;;;;;;;143.33;76.57;;;;;;;;;;5102247;27;319304;-78
2024/02/08 06:03:03;;;;;;;127.90;72.10;;;;;;;;;;5121606;27;319033;-77
2024/02/08 06:05:32;;;;;;;126.77;69.93;;;;;;;;;;5109336;27;319057;-77
2024/02/08 06:07:59;;;;;;;130.13;73.30;;;;;;;;;;5122086;27;318542;-77
2024/02/08 06:10:41;;;;;;;118.83;69.67;;;;;;;;;;5102240;27;319107;-77
2024/02/08 06:13:13;;;;;;;119.40;68.40;;;;;;;;;;5120722;27;318620;-77
2024/02/08 06:15:43;;;;;;;118.13;66.63;;;;;;;;;;5107352;27;418289;-77
2024/02/08 06:18:19;;;;;;;120.30;69.03;;;;;;;;;;5122243;27;319111;-77
2024/02/08 06:20:51;;;;;;;126.37;71.43;;;;;;;;;;5102802;27;419569;-77
2024/02/08 06:23:23;;;;;;;110.40;68.50;;;;;;;;;;5108897;27;319379;-77
2024/02/08 06:28:52;;;;;;;115.70;71.20;;;;;;;;;;5105099;27;392809;-77
2024/02/08 06:31:19;;;;;;;136.10;81.33;;;;;;;;;;5109261;27;319225;-77
2024/02/08 06:34:09;;;;;;;162.43;84.47;;;;;;;;;;5121827;27;318450;-79
2024/02/08 06:36:40;;;;;;;131.37;80.40;;;;;;;;;;5099527;27;419970;-79
2024/02/08 06:39:23;;;;;;;118.03;73.93;;;;;;;;;;5119116;27;318388;-79
2024/02/08 06:41:52;;;;;;;150.77;81.73;;;;;;;;;;5105827;27;421199;-79
2024/02/08 06:47:29;;;;;;;241.07;135.83;;;;;;;;;;5120827;27;326848;-78
2024/02/08 07:39:34;;;;;;;121.03;76.30;;;;;;;;;;5110635;27;326026;-79
2024/02/08 07:42:12;;;;;;;145.23;80.17;;;;;;;;;;5120946;27;318585;-78
2024/02/08 07:44:39;;;;;;;173.40;91.57;;;;;;;;;;5100457;27;422699;-79
2024/02/08 07:47:06;;;;;;;158.77;94.70;;;;;;;;;;5123677;27;317725;-79
2024/02/08 07:49:42;;;;;;;172.10;101.87;;;;;;;;;;5111011;27;319019;-79
2024/02/08 07:52:14;;;;;;;178.83;99.20;;;;;;;;;;5122418;27;320101;-79
2024/02/08 07:54:42;;;;;;;162.30;94.90;;;;;;;;;;5097952;27;419769;-79
2024/02/08 07:57:11;;;;;;;120.83;72.03;;;;;;;;;;5121850;27;319176;-79
2024/02/08 07:59:39;;;;;;;100.77;59.50;;;;;;;;;;5107123;27;419538;-79
2024/02/08 08:02:12;;;;;;;84.83;54.27;;;;;;;;;;5119886;27;319261;-79
2024/02/08 08:04:51;;;;;;;90.57;53.50;;;;;;;;;;5099218;27;417220;-78
2024/02/08 08:07:22;;;;;;;94.70;57.10;;;;;;;;;;5110317;27;317890;-78
2024/02/08 08:09:59;;;;;;;95.33;55.07;;;;;;;;;;5121233;27;317991;-79
2024/02/08 08:12:29;;;;;;;118.40;62.30;;;;;;;;;;5104106;27;318161;-79
2024/02/08 08:15:13;;;;;;;131.93;73.40;;;;;;;;;;5123333;27;319348;-79
2024/02/08 08:17:42;;;;;;;142.40;81.80;;;;;;;;;;5106744;27;418854;-79
2024/02/08 08:20:56;;;;;;;135.37;79.33;;;;;;;;;;5121675;27;318547;-78
2024/02/08 08:23:07;;;;;;;140.07;82.90;;;;;;;;;;5109824;27;390674;-78
2024/02/08 08:25:59;;;;;;;144.90;83.80;;;;;;;;;;5111958;27;319183;-79
2024/02/08 08:28:40;;;;;;;145.50;84.57;;;;;;;;;;5102482;27;319120;-78
2024/02/08 08:35:30;;;;;;;133.93;76.47;;;;;;;;;;5107288;27;391415;-79
2024/02/08 08:36:58;;;;;;;114.77;66.97;;;;;;;;;;5108484;27;391863;-79
2024/02/08 08:39:46;;;;;;;98.17;61.60;;;;;;;;;;5111425;27;319218;-79
2024/02/08 08:42:16;;;;;;;102.77;61.00;;;;;;;;;;5110750;27;318006;-79
2024/02/08 08:44:48;;;;;;;95.53;59.53;;;;;;;;;;5115862;27;319243;-78
2024/02/08 08:47:16;;;;;;;96.70;58.70;;;;;;;;;;5109551;27;384718;-79
2024/02/08 08:49:43;;;;;;;95.97;54.70;;;;;;;;;;5123358;27;318372;-78
2024/02/08 08:52:23;;;;;;;83.20;51.97;;;;;;;;;;5123807;27;318241;-79
2024/02/08 08:54:56;;;;;;;83.57;47.17;;;;;;;;;;5108544;27;420203;-79
2024/02/08 08:57:25;;;;;;;103.13;50.97;;;;;;;;;;5110485;27;317733;-79
2024/02/08 08:59:52;;;;;;;82.43;49.47;;;;;;;;;;5121131;27;319369;-79
2024/02/08 09:02:19;;;;;;;87.47;51.17;;;;;;;;;;5112198;27;318346;-79
2024/02/08 09:04:46;;;;;;;95.53;52.77;;;;;;;;;;5118674;27;318031;-78
2024/02/08 09:07:16;;;;;;;91.43;49.63;;;;;;;;;;5109903;27;318252;-78
2024/02/08 09:09:55;;;;;;;75.47;40.77;;;;;;;;;;5123046;27;318085;-81
2024/02/08 09:12:28;;;;;;;78.53;43.13;;;;;;;;;;5107408;27;317788;-80
2024/02/08 09:14:59;;;;;;;66.40;43.17;;;;;;;;;;5123609;27;319460;-80
2024/02/08 09:17:40;;;;;;;69.60;42.83;;;;;;;;;;5112149;27;319494;-79
2024/02/08 09:20:19;;;;;;;64.07;40.77;;;;;;;;;;5121908;27;319292;-79
2024/02/08 09:22:50;;;;;;;70.07;43.63;;;;;;;;;;5103210;27;419708;-79
2024/02/08 09:25:17;;;;;;;69.93;44.67;;;;;;;;;;5123344;27;319168;-78
2024/02/08 09:27:47;;;;;;;76.57;44.40;;;;;;;;;;5156096;27;20293;-79
2024/02/08 09:30:15;;;;;;;83.07;41.83;;;;;;;;;;5127443;27;317282;-81
2024/02/08 09:32:44;;;;;;;64.90;42.43;;;;;;;;;;5112841;27;319185;-79
2024/02/08 09:35:16;;;;;;;79.97;46.77;;;;;;;;;;5125492;27;318463;-78
2024/02/08 09:37:46;;;;;;;83.97;46.20;;;;;;;;;;5112369;27;319352;-78
2024/02/08 09:40:42;;;;;;;143.23;46.20;;;;;;;;;;5116348;27;319306;-78
2024/02/08 09:43:17;;;;;;;78.43;41.23;;;;;;;;;;5111417;27;391745;-78
2024/02/08 09:45:44;;;;;;;62.10;38.37;;;;;;;;;;5111576;27;319197;-78
2024/02/08 09:48:25;;;;;;;52.43;33.50;;;;;;;;;;5115142;27;319373;-79
2024/02/08 09:51:11;;;;;;;57.67;28.53;;;;;;;;;;5110570;27;318928;-78
2024/02/08 09:53:51;;;;;;;50.53;29.00;;;;;;;;;;5108977;27;319239;-78
2024/02/08 09:56:29;;;;;;;36.60;22.27;;;;;;;;;;5115092;27;319362;-78
2024/02/08 09:59:02;;;;;;;33.97;21.93;;;;;;;;;;5108115;27;419724;-78
2024/02/08 10:01:35;;;;;;;44.33;23.60;;;;;;;;;;5110868;27;319238;-78
2024/02/08 10:04:05;;;;;;;39.43;23.33;;;;;;;;;;5114519;27;319235;-78
2024/02/08 10:12:06;;;;;;;29.97;18.77;;;;;;;;;;5105496;27;389359;-78
2024/02/08 10:14:33;;;;;;;41.57;20.13;;;;;;;;;;5110961;27;318798;-78
2024/02/08 10:17:14;;;;;;;23.37;12.27;;;;;;;;;;5122930;27;318966;-78
2024/02/08 10:20:24;;;;;;;28.47;14.13;;;;;;;;;;5112105;27;319163;-79
2024/02/08 10:22:43;;;;;;;21.77;11.03;;;;;;;;;;5109774;27;319167;-79
2024/02/08 10:27:58;;;;;;;27.47;13.03;;;;;;;;;;5109668;27;390470;-79
2024/02/08 10:30:26;;;;;;;22.67;11.33;;;;;;;;;;5116596;27;319082;-79
2024/02/08 10:32:53;;;;;;;19.63;9.20;;;;;;;;;;5107796;27;420547;-81
2024/02/08 10:35:21;;;;;;;14.10;9.00;;;;;;;;;;5122288;27;317368;-80
2024/02/08 10:37:53;;;;;;;16.60;9.03;;;;;;;;;;5111089;27;359455;-79
2024/02/08 10:40:29;;;;;;;15.60;9.33;;;;;;;;;;5116469;27;317197;-79
2024/02/08 10:42:59;;;;;;;23.73;9.70;;;;;;;;;;5105991;27;416901;-78
2024/02/08 10:45:27;;;;;;;16.93;9.87;;;;;;;;;;5122604;27;318433;-78
2024/02/08 10:48:00;;;;;;;16.00;8.83;;;;;;;;;;5108132;27;418651;-80
2024/02/08 10:50:28;;;;;;;14.97;8.07;;;;;;;;;;5120036;27;317298;-79
2024/02/08 10:53:00;;;;;;;19.00;8.17;;;;;;;;;;5106876;27;417203;-79
2024/02/08 10:55:36;;;;;;;12.67;7.17;;;;;;;;;;5123218;27;318269;-78
2024/02/08 10:58:27;;;;;;;11.87;6.60;;;;;;;;;;5099390;27;417847;-80
2024/02/08 11:03:44;;;;;;;12.77;6.63;;;;;;;;;;5120344;27;318271;-78
2024/02/08 11:06:26;;;;;;;16.10;7.77;;;;;;;;;;5130410;27;316739;-80
2024/02/08 11:09:14;;;;;;;11.43;7.67;;;;;;;;;;5120014;27;358460;-79
2024/02/08 11:11:46;;;;;;;13.77;8.43;;;;;;;;;;5111148;27;317930;-79
2024/02/08 11:14:19;;;;;;;19.90;10.47;;;;;;;;;;5113437;27;318135;-78
2024/02/08 11:16:49;;;;;;;20.00;8.93;;;;;;;;;;5109864;27;341716;-78
2024/02/08 11:19:19;;;;;;;11.57;7.00;;;;;;;;;;5121184;27;317441;-79
2024/02/08 11:21:49;;;;;;;10.97;5.97;;;;;;;;;;5111080;27;317877;-78
2024/02/08 11:24:38;;;;;;;12.23;6.00;;;;;;;;;;5114584;27;317981;-80
2024/02/08 11:27:05;;;;;;;14.03;6.30;;;;;;;;;;5105289;27;419578;-79
2024/02/08 11:29:45;;;;;;;16.47;5.13;;;;;;;;;;5109638;27;317233;-79
2024/02/08 11:32:16;;;;;;;7.00;4.72;;;;;;;;;;5112699;27;318202;-78
2024/02/08 11:34:44;;;;;;;9.43;4.73;;;;;;;;;;5109597;27;317081;-79
2024/02/08 11:37:17;;;;;;;14.40;5.27;;;;;;;;;;5122366;27;316858;-79
2024/02/08 11:39:46;;;;;;;19.17;5.07;;;;;;;;;;5111262;27;318106;-79
2024/02/08 11:42:16;;;;;;;11.77;4.17;;;;;;;;;;5115642;27;317977;-80
2024/02/08 11:44:44;;;;;;;8.73;3.43;;;;;;;;;;5110637;27;317546;-78
2024/02/08 11:47:23;;;;;;;15.60;4.13;;;;;;;;;;5120692;27;316983;-78
2024/02/08 11:50:00;;;;;;;7.70;3.30;;;;;;;;;;5111600;27;317423;-78
2024/02/08 11:52:27;;;;;;;10.90;4.47;;;;;;;;;;5120384;27;316977;-78
2024/02/08 11:55:09;;;;;;;17.92;4.10;;;;;;;;;;5107805;27;417435;-78
2024/02/08 11:57:37;;;;;;;18.15;4.57;;;;;;;;;;5108717;27;318534;-79
2024/02/08 12:00:16;;;;;;;4.07;3.30;;;;;;;;;;5117750;27;318468;-79
2024/02/08 12:02:47;;;;;;;9.60;5.15;;;;;;;;;;5084204;27;416447;-79
2024/02/08 12:05:17;;;;;;;9.93;3.50;;;;;;;;;;5090654;27;317720;-79
2024/02/08 12:07:45;;;;;;;11.45;4.62;;;;;;;;;;5102499;27;316524;-78
2024/02/08 12:10:16;;;;;;;18.83;4.78;;;;;;;;;;5089385;27;317576;-79
2024/02/08 12:12:44;;;;;;;14.82;5.28;;;;;;;;;;5097537;27;317719;-79
2024/02/08 12:15:12;;;;;;;11.30;3.95;;;;;;;;;;5100143;27;317965;-78
2024/02/08 12:17:41;;;;;;;11.95;4.35;;;;;;;;;;5117626;27;318032;-78
2024/02/08 12:20:10;;;;;;;13.07;5.28;;;;;;;;;;5118918;27;317995;-78
2024/02/08 12:22:39;;;;;;;11.85;4.18;;;;;;;;;;5096699;27;417810;-78
2024/02/08 12:25:08;;;;;;;9.57;4.03;;;;;;;;;;5119612;27;317902;-79
2024/02/08 12:27:36;;;;;;;10.35;3.87;;;;;;;;;;5102745;27;416016;-79
2024/02/08 12:30:04;;;;;;;14.50;5.25;;;;;;;;;;5118669;27;316432;-78
2024/02/08 12:32:33;;;;;;;21.87;4.70;;;;;;;;;;5099493;27;316905;-78
2024/02/08 12:35:12;;;;;;;7.55;3.65;;;;;;;;;;5116760;27;317173;-78
2024/02/08 12:37:41;;;;;;;11.73;4.32;;;;;;;;;;5087547;27;416051;-80
2024/02/08 12:40:12;;;;;;;10.60;4.30;;;;;;;;;;5099705;27;317657;-78
2024/02/08 12:42:40;;;;;;;18.15;4.40;;;;;;;;;;5077508;27;417698;-79
2024/02/08 12:45:10;;;;;;;10.93;4.68;;;;;;;;;;5101773;27;318505;-78
2024/02/08 12:47:40;;;;;;;14.73;5.63;;;;;;;;;;5085540;27;418495;-78
2024/02/08 12:50:09;;;;;;;9.27;4.47;;;;;;;;;;5099869;27;318242;-78
2024/02/08 12:52:40;;;;;;;11.00;4.17;;;;;;;;;;5077155;27;416790;-79
2024/02/08 12:55:09;;;;;;;10.50;3.17;;;;;;;;;;5101305;27;318308;-79
2024/02/08 12:57:36;;;;;;;18.83;3.10;;;;;;;;;;5087915;27;418610;-78
2024/02/08 13:00:07;;;;;;;10.20;3.27;;;;;;;;;;5101690;27;317487;-78
2024/02/08 13:02:34;;;;;;;12.43;3.27;;;;;;;;;;5083695;27;318391;-78
2024/02/08 13:05:02;;;;;;;12.50;3.08;;;;;;;;;;5102890;27;317440;-78
2024/02/08 13:07:29;;;;;;;9.07;3.57;;;;;;;;;;5089774;27;317570;-78
2024/02/08 13:10:03;;;;;;;10.88;3.70;;;;;;;;;;5101824;27;316920;-79
2024/02/08 13:12:30;;;;;;;17.70;3.65;;;;;;;;;;5083192;27;318189;-79
2024/02/08 13:15:02;;;;;;;9.10;3.42;;;;;;;;;;5100588;27;317412;-79
2024/02/08 13:17:33;;;;;;;9.68;3.08;;;;;;;;;;5091075;27;317205;-78
2024/02/08 13:20:11;;;;;;;20.80;3.25;;;;;;;;;;5101253;27;317324;-78
2024/02/08 13:22:41;;;;;;;11.00;2.90;;;;;;;;;;5079572;27;417234;-78
2024/02/08 13:25:12;;;;;;;10.85;2.58;;;;;;;;;;5103054;27;318442;-79
2024/02/08 13:27:40;;;;;;;6.30;3.08;;;;;;;;;;5087802;27;417532;-79
2024/02/08 13:30:14;;;;;;;13.65;3.45;;;;;;;;;;5100652;27;317079;-79
2024/02/08 13:32:42;;;;;;;8.20;4.03;;;;;;;;;;5080790;27;417355;-79
2024/02/08 13:35:09;;;;;;;21.30;4.63;;;;;;;;;;5102427;27;316608;-79
2024/02/08 13:37:37;;;;;;;10.93;4.93;;;;;;;;;;5085954;27;417882;-79
2024/02/08 13:40:07;;;;;;;16.02;6.07;;;;;;;;;;5103647;27;318191;-79
2024/02/08 13:42:38;;;;;;;14.87;4.40;;;;;;;;;;5083774;27;319209;-79
2024/02/08 13:45:06;;;;;;;19.63;5.43;;;;;;;;;;5102768;27;318369;-79
2024/02/08 13:47:36;;;;;;;14.27;4.77;;;;;;;;;;5091823;27;317670;-79
2024/02/08 13:50:06;;;;;;;12.47;4.03;;;;;;;;;;5103059;27;317575;-79
2024/02/08 13:52:32;;;;;;;5.60;3.33;;;;;;;;;;5081853;27;318522;-80
2024/02/08 13:54:59;;;;;;;15.90;2.97;;;;;;;;;;5102410;27;333816;-80
2024/02/08 13:57:27;;;;;;;14.63;3.13;;;;;;;;;;5092214;27;318122;-80
2024/02/08 13:59:55;;;;;;;9.52;4.32;;;;;;;;;;5103902;27;318424;-79
2024/02/08 14:02:25;;;;;;;8.98;3.87;;;;;;;;;;5102883;27;316759;-79
2024/02/08 14:04:55;;;;;;;9.00;3.87;;;;;;;;;;5123271;27;317470;-80
2024/02/08 14:07:25;;;;;;;12.98;3.78;;;;;;;;;;5111333;27;317426;-79
2024/02/08 14:09:58;;;;;;;22.77;4.47;;;;;;;;;;5124263;27;318960;-80
2024/02/08 14:12:25;;;;;;;15.23;5.05;;;;;;;;;;5104946;27;318543;-79
2024/02/08 14:14:54;;;;;;;13.35;3.47;;;;;;;;;;5123835;27;318355;-79
2024/02/08 14:17:21;;;;;;;23.65;7.07;;;;;;;;;;5112132;27;326827;-80
2024/02/08 14:19:49;;;;;;;20.48;6.93;;;;;;;;;;5124667;27;317556;-79
2024/02/08 14:22:17;;;;;;;16.77;6.00;;;;;;;;;;5112009;27;318283;-81
2024/02/08 14:24:50;;;;;;;12.52;4.93;;;;;;;;;;5123411;27;316652;-79
2024/02/08 14:27:17;;;;;;;10.40;5.17;;;;;;;;;;5113290;27;318367;-79
2024/02/08 14:29:44;;;;;;;11.40;5.25;;;;;;;;;;5124834;27;317868;-79
2024/02/08 14:32:13;;;;;;;14.87;5.80;;;;;;;;;;5114045;27;318369;-79
2024/02/08 14:34:40;;;;;;;15.15;5.55;;;;;;;;;;5117487;27;318474;-80
2024/02/08 14:37:07;;;;;;;30.77;7.62;;;;;;;;;;5124715;27;317782;-80
2024/02/08 14:39:35;;;;;;;18.95;5.40;;;;;;;;;;5111436;27;357752;-80
2024/02/08 14:42:03;;;;;;;16.33;5.97;;;;;;;;;;5126468;27;317637;-79
2024/02/08 14:44:40;;;;;;;20.60;6.83;;;;;;;;;;5104585;27;318622;-79
2024/02/08 14:47:07;;;;;;;20.60;6.07;;;;;;;;;;5123071;27;318554;-79
2024/02/08 14:49:54;;;;;;;20.62;9.73;;;;;;;;;;5113524;27;318162;-80
2024/02/08 14:52:26;;;;;;;18.95;6.20;;;;;;;;;;5107109;27;318160;-80
2024/02/08 14:54:58;;;;;;;19.67;7.13;;;;;;;;;;5123265;27;318427;-79
2024/02/08 14:57:26;;;;;;;14.00;6.95;;;;;;;;;;5110739;27;318432;-80
2024/02/08 15:00:28;;;;;;;14.68;7.05;;;;;;;;;;5121594;27;318181;-80
2024/02/08 15:02:55;;;;;;;15.75;7.53;;;;;;;;;;5099088;27;390306;-80
2024/02/08 15:05:40;;;;;;;23.77;9.00;;;;;;;;;;5111402;27;318376;-79
2024/02/08 15:11:02;;;;;;;32.00;11.45;;;;;;;;;;5111471;27;389123;-79
2024/02/08 15:13:28;;;;;;;50.83;28.38;;;;;;;;;;5115390;27;318939;-79
2024/02/08 15:15:57;;;;;;;52.90;20.08;;;;;;;;;;5126048;27;319112;-79
2024/02/08 15:18:38;;;;;;;53.65;28.40;;;;;;;;;;5105310;27;319581;-79
2024/02/08 15:21:06;;;;;;;31.83;18.63;;;;;;;;;;5125481;27;318723;-79
2024/02/08 15:23:34;;;;;;;60.92;36.88;;;;;;;;;;5112946;27;319225;-79
2024/02/08 15:26:02;;;;;;;66.17;36.47;;;;;;;;;;5123519;27;354872;-79
2024/02/08 15:28:34;;;;;;;57.67;29.53;;;;;;;;;;5105962;27;319350;-79
2024/02/08 15:31:15;;;;;;;68.32;34.40;;;;;;;;;;5124869;27;318506;-79
2024/02/08 15:34:07;;;;;;;85.33;41.03;;;;;;;;;;5111939;27;419442;-79
2024/02/08 15:36:46;;;;;;;33.20;18.27;;;;;;;;;;5107451;27;319414;-79
2024/02/08 15:39:27;;;;;;;36.03;19.43;;;;;;;;;;5110741;27;398370;-79
2024/02/08 15:41:55;;;;;;;38.97;16.62;;;;;;;;;;5124844;27;319162;-79
2024/02/08 15:44:33;;;;;;;31.73;13.57;;;;;;;;;;5105845;27;319296;-79
2024/02/08 15:47:01;;;;;;;27.63;12.27;;;;;;;;;;5126317;27;318498;-79
2024/02/08 15:49:28;;;;;;;22.20;12.45;;;;;;;;;;5114938;27;319304;-79
2024/02/08 15:51:57;;;;;;;20.87;12.23;;;;;;;;;;5125069;27;319613;-79
2024/02/08 15:54:34;;;;;;;32.55;16.27;;;;;;;;;;5104815;27;319381;-78
2024/02/08 15:57:07;;;;;;;51.05;27.65;;;;;;;;;;5125290;27;318941;-78
2024/02/08 15:59:35;;;;;;;52.17;23.40;;;;;;;;;;5114401;27;319029;-79
2024/02/08 16:02:04;;;;;;;51.28;25.08;;;;;;;;;;5124965;27;324266;-79
2024/02/08 16:04:49;;;;;;;36.43;19.77;;;;;;;;;;5107247;27;319129;-79
2024/02/08 16:07:17;;;;;;;46.27;22.50;;;;;;;;;;5115382;27;319821;-79
2024/02/08 16:09:46;;;;;;;38.97;22.40;;;;;;;;;;5126130;27;318349;-79
2024/02/08 16:12:22;;;;;;;59.77;24.70;;;;;;;;;;5113586;27;356585;-79
2024/02/08 16:14:59;;;;;;;55.63;24.83;;;;;;;;;;5125143;27;318892;-79
2024/02/08 16:17:57;;;;;;;60.13;26.97;;;;;;;;;;5113652;27;319325;-78
2024/02/08 16:20:24;;;;;;;58.53;28.30;;;;;;;;;;5105597;27;319221;-78
2024/02/08 16:22:55;;;;;;;56.97;29.07;;;;;;;;;;5125928;27;319225;-78